Terminal Aerodrome Forecast
Issued by NWS

Home | Current Version | Previous Version | Text Only | Print | Product List | Glossary On
Versions: 1 2 3 4 5 6 7 8 9 10 11 12 13 14 15 16 17 18 19 20 21 22 23 24 25 26 27 28 29 30
000
FTUS41 KBGM 210533
TAFRME
TAF
KRME 210533Z 2106/2206 10008KT P6SM OVC100
     FM211800 13007KT 5SM -RA BR OVC030
     FM220100 11007KT 4SM -RA BR OVC018
     FM220500 VRB03KT 3SM -SNRA BR OVC012=

USA.gov is the U.S. government's official web portal to all federal, state and local government web resources and services.